Bledsoe, Texas
Current Conditions -  °F | °C
As of 11:58 AM on Thursday 30 Oct 2014 (Local Time) from KCVS Reporting Station
Clear Clear  
Wind Chill: 66°   Ceiling: Unl
Heat Index: 66°   Visibility: 10mi
Dew Point: 29°   Wind: 25mph
Humidity: 25%   Direction: 30°NNE
Pressure: 30.27"   Gusts: NA
Location:  33.62°N, 103.02°W
Report Text: KCVS 301658Z AUTO 03022KT 10SM CLR 19/M02 A3027 RMK AO2 PK WND 04028/12 SLP216 T01911016 $
Loading
Personal Weather Stations






























Interactive Weather Map
Tropical Storm Tracking
New forecast layout! Learn more

10-Day Weather Forecast

Advertisements
Track Severe Weather on mobile